Time;durP1;ratioP1;P1;durP2;ratioP2;P2;SDS_P1;SDS_P2;PMS_P1;PMS_P2;Temp;Humidity;BMP_temperature;BMP_pressure;BME280_temperature;BME280_humidity;BME280_pressure;Samples;Min_cycle;Max_cycle;Signal;HPM_P1;HPM_P2
2020/12/18 00:05:42;;;;;;;13.05;11.40;;;;;;;;;;4356760;28;20102;-56
2020/12/18 00:08:11;;;;;;;16.15;12.82;;;;;;;;;;4163474;34;20118;-56
2020/12/18 00:10:41;;;;;;;13.43;12.02;;;;;;;;;;4174001;34;20121;-54
2020/12/18 00:13:07;;;;;;;13.62;11.25;;;;;;;;;;4177234;34;20113;-55
2020/12/18 00:15:33;;;;;;;13.27;11.88;;;;;;;;;;4177331;34;20137;-55
2020/12/18 00:17:59;;;;;;;15.25;12.05;;;;;;;;;;4175742;34;20190;-56
2020/12/18 00:20:25;;;;;;;15.18;12.45;;;;;;;;;;4177032;34;20129;-56
2020/12/18 00:22:50;;;;;;;13.88;12.35;;;;;;;;;;4177023;34;20145;-54
2020/12/18 00:25:16;;;;;;;14.57;13.07;;;;;;;;;;4177118;34;20478;-54
2020/12/18 00:27:42;;;;;;;13.88;12.05;;;;;;;;;;4177029;34;20114;-54
2020/12/18 00:30:09;;;;;;;16.60;12.65;;;;;;;;;;4176253;34;20525;-55
2020/12/18 00:32:41;;;;;;;14.20;11.70;;;;;;;;;;4177186;34;20443;-53
2020/12/18 00:35:11;;;;;;;13.55;12.15;;;;;;;;;;4177035;34;20547;-56
2020/12/18 00:37:37;;;;;;;14.77;12.07;;;;;;;;;;4177012;34;20604;-53
2020/12/18 00:40:06;;;;;;;16.08;12.40;;;;;;;;;;4177202;34;20210;-55
2020/12/18 00:42:32;;;;;;;13.02;11.63;;;;;;;;;;4176944;34;20209;-55
2020/12/18 00:44:58;;;;;;;14.25;12.35;;;;;;;;;;4176770;34;20144;-55
2020/12/18 00:47:24;;;;;;;13.98;12.45;;;;;;;;;;4176822;34;20157;-55
2020/12/18 00:49:50;;;;;;;13.05;11.45;;;;;;;;;;4176777;34;20126;-53
2020/12/18 00:52:16;;;;;;;14.25;12.55;;;;;;;;;;4176851;34;20196;-54
2020/12/18 00:54:41;;;;;;;14.48;12.45;;;;;;;;;;4176664;34;20526;-54
2020/12/18 00:57:07;;;;;;;13.80;12.07;;;;;;;;;;4176826;34;20110;-54
2020/12/18 00:59:33;;;;;;;14.75;12.35;;;;;;;;;;4176878;34;20141;-55
2020/12/18 01:02:05;;;;;;;13.45;11.88;;;;;;;;;;4176707;34;20157;-57
2020/12/18 01:04:31;;;;;;;13.93;12.40;;;;;;;;;;4176494;34;20769;-56
2020/12/18 01:06:57;;;;;;;13.70;11.93;;;;;;;;;;4176890;34;20183;-56
2020/12/18 04:29:23;;;;;;;10.60;9.50;;;;;;;;;;4163506;34;20109;-59
2020/12/18 04:31:49;;;;;;;10.52;9.23;;;;;;;;;;4163229;34;20127;-60
2020/12/18 04:34:15;;;;;;;9.70;8.70;;;;;;;;;;4163205;34;20118;-60
2020/12/18 04:36:40;;;;;;;10.13;9.02;;;;;;;;;;4163253;34;20132;-59
2020/12/18 04:39:06;;;;;;;10.45;8.90;;;;;;;;;;4163116;34;20148;-59
2020/12/18 04:41:33;;;;;;;9.57;8.57;;;;;;;;;;4163416;34;20111;-59
2020/12/18 04:43:59;;;;;;;11.02;9.20;;;;;;;;;;4163278;34;20123;-58
2020/12/18 04:46:25;;;;;;;10.57;8.88;;;;;;;;;;4163513;34;20119;-59
2020/12/18 04:48:51;;;;;;;10.25;9.20;;;;;;;;;;4150462;34;20125;-59
2020/12/18 04:51:25;;;;;;;10.82;9.10;;;;;;;;;;4163437;34;20119;-58
2020/12/18 04:53:52;;;;;;;10.90;9.40;;;;;;;;;;4163257;34;20437;-59
2020/12/18 04:56:22;;;;;;;10.85;8.63;;;;;;;;;;4163164;34;20126;-59
2020/12/18 04:58:49;;;;;;;15.52;10.23;;;;;;;;;;4163059;34;20111;-59
2020/12/18 05:01:17;;;;;;;10.57;8.48;;;;;;;;;;4163290;34;20471;-59
2020/12/18 05:03:43;;;;;;;11.12;8.98;;;;;;;;;;4150210;34;20539;-58
2020/12/18 05:06:09;;;;;;;10.35;8.63;;;;;;;;;;4150373;34;20115;-59
2020/12/18 05:08:35;;;;;;;9.55;8.55;;;;;;;;;;4162914;34;20221;-59
2020/12/18 05:11:23;;;;;;;9.68;7.72;;;;;;;;;;4162890;34;20127;-59
2020/12/18 05:13:51;;;;;;;9.57;8.40;;;;;;;;;;4162893;34;20127;-59
2020/12/18 05:16:17;;;;;;;10.07;7.90;;;;;;;;;;4164523;34;20678;-58
2020/12/18 05:18:44;;;;;;;9.60;8.02;;;;;;;;;;4164966;34;20292;-58
2020/12/18 05:21:10;;;;;;;8.82;7.78;;;;;;;;;;4165136;34;20243;-58
2020/12/18 05:23:37;;;;;;;10.10;7.93;;;;;;;;;;4164778;34;20545;-58
2020/12/18 05:26:06;;;;;;;9.88;8.27;;;;;;;;;;4164741;34;20129;-58
2020/12/18 05:28:47;;;;;;;10.65;8.75;;;;;;;;;;4152316;34;20133;-58
2020/12/18 05:31:18;;;;;;;8.50;7.15;;;;;;;;;;4164453;34;20200;-59
2020/12/18 05:33:46;;;;;;;9.63;7.78;;;;;;;;;;4164638;34;20440;-58
2020/12/18 05:36:12;;;;;;;8.77;7.55;;;;;;;;;;4152176;34;20208;-58
2020/12/18 05:38:38;;;;;;;9.88;8.65;;;;;;;;;;4152019;34;20114;-58
2020/12/18 05:41:04;;;;;;;9.15;7.53;;;;;;;;;;4164667;34;20122;-58
2020/12/18 05:43:41;;;;;;;8.05;7.25;;;;;;;;;;4164594;34;20118;-58
2020/12/18 05:46:17;;;;;;;7.82;6.87;;;;;;;;;;4164701;34;20110;-58
2020/12/18 05:48:44;;;;;;;7.80;7.00;;;;;;;;;;4164775;34;20110;-57
2020/12/18 05:51:12;;;;;;;9.10;7.10;;;;;;;;;;4164515;34;20214;-58
2020/12/18 05:53:38;;;;;;;8.45;7.28;;;;;;;;;;4152091;34;20456;-58
2020/12/18 05:56:04;;;;;;;7.75;6.53;;;;;;;;;;4164438;34;20222;-59
2020/12/18 05:58:29;;;;;;;11.27;9.70;;;;;;;;;;4151760;34;20588;-59
2020/12/18 06:00:56;;;;;;;7.65;6.40;;;;;;;;;;4164385;34;20103;-58
2020/12/18 06:03:22;;;;;;;8.05;7.25;;;;;;;;;;4164425;34;20111;-58
2020/12/18 06:05:48;;;;;;;7.95;7.05;;;;;;;;;;4140577;34;20614;-58
2020/12/18 06:08:15;;;;;;;9.93;6.68;;;;;;;;;;4151983;34;20130;-58
2020/12/18 06:26:41;;;;;;;7.65;6.62;;;;;;;;;;4164056;34;20528;-58
2020/12/18 06:29:07;;;;;;;8.07;7.25;;;;;;;;;;4164337;34;20103;-57
2020/12/18 06:31:34;;;;;;;7.57;6.78;;;;;;;;;;4164334;34;20201;-57
2020/12/18 06:34:01;;;;;;;7.25;6.32;;;;;;;;;;4164259;34;20106;-58
2020/12/18 06:36:46;;;;;;;7.28;6.32;;;;;;;;;;4164449;34;20219;-58
2020/12/18 06:39:21;;;;;;;7.43;6.72;;;;;;;;;;4164259;34;20100;-57
2020/12/18 06:41:47;;;;;;;6.85;6.15;;;;;;;;;;4164607;34;20145;-57
2020/12/18 06:44:38;;;;;;;6.68;6.00;;;;;;;;;;4164245;34;20175;-57
2020/12/18 06:47:11;;;;;;;6.87;5.90;;;;;;;;;;4164270;34;20102;-58
2020/12/18 06:49:56;;;;;;;7.93;6.60;;;;;;;;;;4164417;34;20151;-57
2020/12/18 06:52:53;;;;;;;6.65;6.00;;;;;;;;;;4164295;34;20218;-58
2020/12/18 06:55:25;;;;;;;12.30;6.62;;;;;;;;;;4164178;34;20570;-57
2020/12/18 06:58:09;;;;;;;6.93;6.07;;;;;;;;;;4164376;34;20196;-57
2020/12/18 07:00:57;;;;;;;6.85;6.07;;;;;;;;;;4164090;34;20098;-57
2020/12/18 07:03:33;;;;;;;6.40;5.45;;;;;;;;;;4164449;34;20209;-57
2020/12/18 07:06:02;;;;;;;;;;;;;;;;;;4164392;34;20126;-58
2020/12/18 07:08:30;;;;;;;5.80;5.30;;;;;;;;;;4164395;34;20054;-58
2020/12/18 07:11:02;;;;;;;7.60;6.22;;;;;;;;;;4164043;34;20107;-58
2020/12/18 07:13:29;;;;;;;7.32;6.07;;;;;;;;;;4152096;34;20137;-58
2020/12/18 07:15:57;;;;;;;8.57;6.05;;;;;;;;;;4151373;34;20107;-58
2020/12/18 07:18:30;;;;;;;8.30;6.07;;;;;;;;;;4163813;34;20199;-57
2020/12/18 07:21:00;;;;;;;6.53;5.78;;;;;;;;;;4163991;34;20187;-57
2020/12/18 07:23:28;;;;;;;7.43;6.28;;;;;;;;;;4164069;34;20103;-58
2020/12/18 07:25:55;;;;;;;7.65;6.47;;;;;;;;;;4164051;34;20118;-58
2020/12/18 07:28:21;;;;;;;6.95;6.25;;;;;;;;;;4163824;34;20110;-58
2020/12/18 07:30:47;;;;;;;7.05;6.35;;;;;;;;;;4163568;34;20098;-58
2020/12/18 07:33:14;;;;;;;8.70;6.18;;;;;;;;;;4151215;34;20196;-58
2020/12/18 07:35:41;;;;;;;8.88;6.30;;;;;;;;;;4151020;34;20127;-59
2020/12/18 07:38:14;;;;;;;17.25;6.43;;;;;;;;;;4163589;34;20522;-58
2020/12/18 07:40:40;;;;;;;6.25;5.65;;;;;;;;;;4151018;34;20526;-59
2020/12/18 07:43:10;;;;;;;7.15;5.60;;;;;;;;;;4163932;34;20111;-58
2020/12/18 07:45:40;;;;;;;6.93;5.97;;;;;;;;;;4163685;34;20114;-57
2020/12/18 07:48:10;;;;;;;6.20;5.47;;;;;;;;;;4163591;34;20117;-57
2020/12/18 07:50:36;;;;;;;6.22;5.57;;;;;;;;;;4163691;34;20106;-57
2020/12/18 07:53:06;;;;;;;6.37;5.37;;;;;;;;;;4163603;34;20215;-57
2020/12/18 07:55:32;;;;;;;7.10;5.95;;;;;;;;;;4163516;34;20130;-57
2020/12/18 07:57:58;;;;;;;7.40;5.53;;;;;;;;;;4150901;34;20126;-57
2020/12/18 08:00:24;;;;;;;7.60;5.35;;;;;;;;;;4163605;34;20253;-57
2020/12/18 08:02:50;;;;;;;6.97;4.93;;;;;;;;;;4163443;34;20122;-57
2020/12/18 08:05:22;;;;;;;8.45;4.90;;;;;;;;;;4150765;34;20223;-56
2020/12/18 08:07:56;;;;;;;6.65;5.12;;;;;;;;;;4163683;34;20459;-57
2020/12/18 08:10:26;;;;;;;8.18;5.22;;;;;;;;;;4151534;34;20126;-56
2020/12/18 08:13:00;;;;;;;8.82;5.30;;;;;;;;;;4163647;34;20123;-57
2020/12/18 08:15:30;;;;;;;7.62;4.87;;;;;;;;;;4163618;34;20516;-56
2020/12/18 08:18:00;;;;;;;8.77;5.07;;;;;;;;;;4163288;34;20133;-57
2020/12/18 08:20:26;;;;;;;7.57;4.57;;;;;;;;;;4163411;34;20149;-56
2020/12/18 08:22:51;;;;;;;6.07;4.60;;;;;;;;;;4163138;34;20471;-56
2020/12/18 08:25:19;;;;;;;4.85;3.90;;;;;;;;;;4151016;34;20152;-56
2020/12/18 08:27:49;;;;;;;4.37;3.30;;;;;;;;;;4150859;34;20511;-57
2020/12/18 08:30:18;;;;;;;4.12;3.28;;;;;;;;;;4163191;34;20463;-57
2020/12/18 08:32:52;;;;;;;3.70;3.15;;;;;;;;;;4150836;34;20191;-57
2020/12/18 08:35:19;;;;;;;4.40;3.45;;;;;;;;;;4163104;34;20482;-57
2020/12/18 08:37:45;;;;;;;4.75;3.30;;;;;;;;;;4163456;34;20116;-57
2020/12/18 08:40:21;;;;;;;3.70;3.05;;;;;;;;;;4150478;34;20138;-57
2020/12/18 08:43:00;;;;;;;4.50;2.72;;;;;;;;;;4163233;34;20190;-56
2020/12/18 08:45:26;;;;;;;4.45;3.17;;;;;;;;;;4163137;34;20119;-57
2020/12/18 08:47:52;;;;;;;3.85;2.87;;;;;;;;;;4163320;34;20182;-56
2020/12/18 08:50:19;;;;;;;3.83;3.08;;;;;;;;;;4163644;34;20143;-56
2020/12/18 08:52:45;;;;;;;3.83;3.30;;;;;;;;;;4165074;34;20536;-57
2020/12/18 08:55:11;;;;;;;3.85;2.90;;;;;;;;;;4165255;34;20111;-56
2020/12/18 08:57:37;;;;;;;4.15;3.60;;;;;;;;;;4165056;34;20453;-56
2020/12/18 09:00:13;;;;;;;3.65;3.20;;;;;;;;;;4164918;34;20103;-57
2020/12/18 09:02:53;;;;;;;4.78;3.45;;;;;;;;;;4165221;34;20467;-57
2020/12/18 09:05:23;;;;;;;5.57;3.65;;;;;;;;;;4165165;34;20115;-56
2020/12/18 09:08:05;;;;;;;4.40;3.20;;;;;;;;;;4165159;34;20126;-56
2020/12/18 09:10:44;;;;;;;5.05;3.42;;;;;;;;;;4164909;34;20223;-57
2020/12/18 09:13:27;;;;;;;4.30;3.30;;;;;;;;;;4164947;34;20092;-57
2020/12/18 09:16:02;;;;;;;4.65;3.17;;;;;;;;;;4164886;34;20211;-57
2020/12/18 09:18:30;;;;;;;4.07;3.20;;;;;;;;;;4165216;34;20162;-57
2020/12/18 09:20:56;;;;;;;4.35;3.25;;;;;;;;;;4164773;34;20212;-57
2020/12/18 09:23:30;;;;;;;3.92;3.47;;;;;;;;;;4162617;34;20199;-59
2020/12/18 09:25:56;;;;;;;5.03;3.67;;;;;;;;;;4164766;34;20122;-58
2020/12/18 09:28:22;;;;;;;4.65;3.90;;;;;;;;;;4164885;34;20388;-58
2020/12/18 09:30:55;;;;;;;4.60;4.07;;;;;;;;;;4164444;34;20467;-58
2020/12/18 09:33:25;;;;;;;5.47;4.75;;;;;;;;;;4164691;34;20102;-58
2020/12/18 09:36:02;;;;;;;9.73;5.93;;;;;;;;;;4164500;34;20103;-59
2020/12/18 09:38:39;;;;;;;7.50;5.82;;;;;;;;;;4164619;34;20198;-59
2020/12/18 09:41:07;;;;;;;9.50;6.37;;;;;;;;;;4164649;34;20447;-59
2020/12/18 09:43:33;;;;;;;6.70;5.75;;;;;;;;;;4164615;34;20137;-58
2020/12/18 09:45:59;;;;;;;7.80;5.35;;;;;;;;;;4164544;34;20109;-57
2020/12/18 09:48:26;;;;;;;4.93;4.35;;;;;;;;;;4140982;34;20153;-57
2020/12/18 09:50:55;;;;;;;4.53;4.12;;;;;;;;;;4164451;34;20142;-57
2020/12/18 09:53:24;;;;;;;6.62;5.35;;;;;;;;;;4164644;34;20107;-56
2020/12/18 09:55:50;;;;;;;5.75;3.72;;;;;;;;;;4164478;34;20154;-58
2020/12/18 09:58:16;;;;;;;4.90;3.80;;;;;;;;;;4164511;34;20107;-56
2020/12/18 10:00:42;;;;;;;6.18;3.80;;;;;;;;;;4164604;34;20161;-59
2020/12/18 10:03:08;;;;;;;6.45;3.37;;;;;;;;;;4164437;34;20193;-57
2020/12/18 10:05:33;;;;;;;4.07;3.50;;;;;;;;;;4164587;34;20115;-58
2020/12/18 10:07:59;;;;;;;4.47;3.25;;;;;;;;;;4164456;34;20105;-59
2020/12/18 10:10:26;;;;;;;3.40;3.00;;;;;;;;;;4164454;34;20537;-59
2020/12/18 10:12:54;;;;;;;5.28;3.50;;;;;;;;;;4164474;34;20087;-59
2020/12/18 10:15:20;;;;;;;3.55;3.25;;;;;;;;;;4160419;34;20117;-59
2020/12/18 10:17:46;;;;;;;4.53;3.60;;;;;;;;;;4163233;34;20110;-60
2020/12/18 10:20:12;;;;;;;3.47;3.17;;;;;;;;;;4162912;34;20134;-57
2020/12/18 10:22:38;;;;;;;3.85;3.45;;;;;;;;;;4163489;34;20201;-57
2020/12/18 10:25:04;;;;;;;3.05;2.78;;;;;;;;;;4163685;34;20138;-57
2020/12/18 10:27:32;;;;;;;4.07;3.00;;;;;;;;;;4163712;34;20463;-57
2020/12/18 10:29:58;;;;;;;3.00;2.70;;;;;;;;;;4163225;34;20227;-57
2020/12/18 10:32:27;;;;;;;4.65;3.28;;;;;;;;;;4164033;34;20114;-57
2020/12/18 10:34:53;;;;;;;3.60;2.33;;;;;;;;;;4163993;34;20126;-57
2020/12/18 10:37:19;;;;;;;3.12;2.40;;;;;;;;;;4163557;34;20129;-57
2020/12/18 10:39:45;;;;;;;3.03;2.72;;;;;;;;;;4164294;34;20114;-57
2020/12/18 10:42:10;;;;;;;5.43;3.00;;;;;;;;;;4163186;34;20161;-56
2020/12/18 10:44:37;;;;;;;3.72;2.90;;;;;;;;;;4164108;34;20130;-56
2020/12/18 10:47:03;;;;;;;3.97;3.15;;;;;;;;;;4164135;34;20131;-57
2020/12/18 10:49:29;;;;;;;3.53;2.78;;;;;;;;;;4151430;34;20141;-57
2020/12/18 10:51:55;;;;;;;3.20;2.90;;;;;;;;;;4164050;34;20183;-56
2020/12/18 10:54:21;;;;;;;6.90;2.92;;;;;;;;;;4151591;34;20174;-57
2020/12/18 10:56:56;;;;;;;24.50;3.53;;;;;;;;;;4164212;34;20118;-57
2020/12/18 10:59:23;;;;;;;3.22;2.90;;;;;;;;;;4163872;34;20118;-56
2020/12/18 11:01:56;;;;;;;2.60;2.33;;;;;;;;;;4164344;34;20487;-57
2020/12/18 11:04:22;;;;;;;3.35;2.40;;;;;;;;;;4164148;34;20106;-57
2020/12/18 11:06:48;;;;;;;2.55;2.35;;;;;;;;;;4164018;34;20149;-59
2020/12/18 11:09:14;;;;;;;2.92;2.72;;;;;;;;;;4163998;34;20114;-56
2020/12/18 11:11:40;;;;;;;3.75;3.25;;;;;;;;;;4164025;34;20122;-57
2020/12/18 11:14:08;;;;;;;3.40;3.10;;;;;;;;;;4163435;34;20231;-55
2020/12/18 11:16:35;;;;;;;3.00;2.60;;;;;;;;;;4164148;34;20083;-56
2020/12/18 11:19:01;;;;;;;3.37;3.08;;;;;;;;;;4163840;34;20176;-56
2020/12/18 11:21:30;;;;;;;3.35;3.05;;;;;;;;;;4163971;34;20122;-56
2020/12/18 11:23:57;;;;;;;3.60;3.30;;;;;;;;;;4163625;34;20355;-57
2020/12/18 11:26:23;;;;;;;4.55;3.08;;;;;;;;;;4163947;34;20151;-57
2020/12/18 11:28:51;;;;;;;3.47;3.17;;;;;;;;;;4163679;34;20188;-57
2020/12/18 11:31:17;;;;;;;4.35;3.75;;;;;;;;;;4163659;34;20114;-57
2020/12/18 11:33:43;;;;;;;3.53;3.22;;;;;;;;;;4151084;34;20264;-57
2020/12/18 11:36:08;;;;;;;3.80;3.50;;;;;;;;;;4163764;34;20095;-57
2020/12/18 11:38:34;;;;;;;4.07;3.65;;;;;;;;;;4163671;34;20523;-56
2020/12/18 11:41:00;;;;;;;4.05;3.75;;;;;;;;;;4163858;34;20145;-56
2020/12/18 11:43:26;;;;;;;3.72;3.42;;;;;;;;;;4163587;34;20186;-57
2020/12/18 11:45:52;;;;;;;4.07;3.78;;;;;;;;;;4163512;34;20571;-57
2020/12/18 11:48:18;;;;;;;4.35;3.95;;;;;;;;;;4151195;34;20776;-57
2020/12/18 11:50:45;;;;;;;4.70;4.30;;;;;;;;;;4163607;34;20129;-58
2020/12/18 11:53:11;;;;;;;4.12;3.72;;;;;;;;;;4163742;34;20125;-57
2020/12/18 11:55:37;;;;;;;4.22;3.83;;;;;;;;;;4150893;34;20127;-57
2020/12/18 11:58:03;;;;;;;4.15;3.75;;;;;;;;;;4163413;34;20483;-57
2020/12/18 12:00:30;;;;;;;4.55;4.15;;;;;;;;;;4163414;34;20562;-57
2020/12/18 12:02:55;;;;;;;4.15;3.75;;;;;;;;;;4163433;34;20205;-58
2020/12/18 12:05:22;;;;;;;4.07;3.78;;;;;;;;;;4163757;34;20147;-57
2020/12/18 12:07:48;;;;;;;5.75;4.18;;;;;;;;;;4163649;34;20145;-56
2020/12/18 12:10:15;;;;;;;6.07;4.15;;;;;;;;;;4163830;34;20110;-57
2020/12/18 12:12:41;;;;;;;4.43;4.03;;;;;;;;;;4163613;34;20114;-58
2020/12/18 12:15:07;;;;;;;4.10;3.80;;;;;;;;;;4163441;34;20530;-57
2020/12/18 12:17:33;;;;;;;4.43;4.03;;;;;;;;;;4163599;34;20099;-58
2020/12/18 12:19:59;;;;;;;4.68;4.28;;;;;;;;;;4163592;34;20125;-57
2020/12/18 12:22:26;;;;;;;4.95;4.47;;;;;;;;;;4163521;34;20110;-57
2020/12/18 12:24:52;;;;;;;3.92;3.62;;;;;;;;;;4162457;34;20126;-57
2020/12/18 12:27:25;;;;;;;4.85;4.45;;;;;;;;;;4163532;34;20670;-56
2020/12/18 12:29:54;;;;;;;5.20;4.80;;;;;;;;;;4163273;34;20150;-57
2020/12/18 12:32:21;;;;;;;4.90;4.50;;;;;;;;;;4163699;34;20187;-57
2020/12/18 12:34:47;;;;;;;4.40;4.00;;;;;;;;;;4163613;34;20118;-58
2020/12/18 12:37:12;;;;;;;4.78;4.37;;;;;;;;;;4163584;34;20645;-58
2020/12/18 12:39:39;;;;;;;4.03;3.72;;;;;;;;;;4163121;34;20110;-57
2020/12/18 12:42:05;;;;;;;3.92;3.62;;;;;;;;;;4163310;34;20191;-58
2020/12/18 12:44:31;;;;;;;4.30;3.90;;;;;;;;;;4163056;34;20113;-58
2020/12/18 12:46:57;;;;;;;4.53;4.12;;;;;;;;;;4150761;34;20106;-56
2020/12/18 12:49:23;;;;;;;4.47;4.07;;;;;;;;;;4163026;34;20106;-57
2020/12/18 12:51:53;;;;;;;4.55;4.15;;;;;;;;;;4163138;34;20119;-57
2020/12/18 12:54:24;;;;;;;4.05;3.75;;;;;;;;;;4150686;34;20190;-57
2020/12/18 12:57:03;;;;;;;4.90;4.40;;;;;;;;;;4163164;34;20137;-57
2020/12/18 12:59:29;;;;;;;4.50;3.50;;;;;;;;;;4162955;34;20198;-59
2020/12/18 13:01:55;;;;;;;4.55;4.15;;;;;;;;;;4163126;34;20217;-57
2020/12/18 13:04:21;;;;;;;4.93;4.53;;;;;;;;;;4163179;34;20114;-57
2020/12/18 13:06:47;;;;;;;5.12;4.62;;;;;;;;;;4163123;34;20221;-57
2020/12/18 13:09:13;;;;;;;4.85;4.22;;;;;;;;;;4163015;34;20585;-57
2020/12/18 13:11:39;;;;;;;6.32;5.72;;;;;;;;;;4163011;34;20118;-57
2020/12/18 13:14:05;;;;;;;5.72;5.22;;;;;;;;;;4162810;34;20551;-57
2020/12/18 13:16:32;;;;;;;5.45;4.90;;;;;;;;;;4162999;34;20550;-58
2020/12/18 13:18:57;;;;;;;5.30;4.68;;;;;;;;;;4162862;34;20223;-58
2020/12/18 13:21:31;;;;;;;6.18;5.57;;;;;;;;;;4163170;34;20130;-59
2020/12/18 13:23:58;;;;;;;7.35;6.65;;;;;;;;;;4162725;34;20114;-58
2020/12/18 13:26:24;;;;;;;7.90;7.10;;;;;;;;;;4162760;34;20127;-58
2020/12/18 13:28:50;;;;;;;6.97;6.28;;;;;;;;;;4162926;34;20645;-58
2020/12/18 13:31:18;;;;;;;7.97;7.28;;;;;;;;;;4150521;34;20130;-58
2020/12/18 13:33:45;;;;;;;8.48;7.68;;;;;;;;;;4162658;34;20137;-58
2020/12/18 13:36:11;;;;;;;6.40;5.80;;;;;;;;;;4163543;34;20207;-58
2020/12/18 13:38:36;;;;;;;5.70;5.20;;;;;;;;;;4164837;34;20222;-58
2020/12/18 13:41:02;;;;;;;6.70;6.10;;;;;;;;;;4164921;34;20217;-58
2020/12/18 13:43:28;;;;;;;6.93;6.22;;;;;;;;;;4164788;34;20118;-58
2020/12/18 13:45:54;;;;;;;7.15;5.85;;;;;;;;;;4164707;34;20190;-57
2020/12/18 13:48:20;;;;;;;6.25;5.65;;;;;;;;;;4164960;34;20102;-58
2020/12/18 13:50:46;;;;;;;7.95;7.25;;;;;;;;;;4164652;34;20207;-57
2020/12/18 13:53:12;;;;;;;7.87;6.90;;;;;;;;;;4164692;34;20578;-58
2020/12/18 13:55:38;;;;;;;6.97;6.28;;;;;;;;;;4164456;34;20472;-57
2020/12/18 13:58:04;;;;;;;6.78;6.07;;;;;;;;;;4164552;34;20122;-58
2020/12/18 14:00:30;;;;;;;6.32;5.72;;;;;;;;;;4164472;34;20118;-58
2020/12/18 14:02:56;;;;;;;6.87;6.18;;;;;;;;;;4164442;34;20122;-59
2020/12/18 14:05:22;;;;;;;6.30;5.70;;;;;;;;;;4164629;34;20142;-59
2020/12/18 14:07:48;;;;;;;7.30;6.62;;;;;;;;;;4164770;34;20299;-57
2020/12/18 14:10:14;;;;;;;7.22;6.62;;;;;;;;;;4164493;34;20137;-58
2020/12/18 14:12:40;;;;;;;6.75;6.12;;;;;;;;;;4140891;34;20106;-57
2020/12/18 14:15:06;;;;;;;7.22;5.90;;;;;;;;;;4164569;34;20203;-58
2020/12/18 14:17:31;;;;;;;7.20;6.50;;;;;;;;;;4164383;34;20118;-58
2020/12/18 14:19:57;;;;;;;7.53;6.82;;;;;;;;;;4164250;34;20137;-58
2020/12/18 14:22:23;;;;;;;7.60;6.68;;;;;;;;;;4164340;34;20194;-58
2020/12/18 14:24:49;;;;;;;7.47;6.25;;;;;;;;;;4164452;34;20472;-59
2020/12/18 14:27:15;;;;;;;7.55;6.85;;;;;;;;;;4164473;34;20106;-58
2020/12/18 14:29:41;;;;;;;7.75;6.95;;;;;;;;;;4163917;34;20165;-59
2020/12/18 14:32:08;;;;;;;8.32;7.47;;;;;;;;;;4164485;34;20111;-58
2020/12/18 14:34:34;;;;;;;8.05;7.25;;;;;;;;;;4164344;34;20199;-58
2020/12/18 14:37:04;;;;;;;8.52;7.72;;;;;;;;;;4164383;34;20112;-58
2020/12/18 14:39:30;;;;;;;8.98;8.07;;;;;;;;;;4151842;34;20566;-58
2020/12/18 14:41:55;;;;;;;7.18;6.50;;;;;;;;;;4164074;34;20196;-58
2020/12/18 14:44:21;;;;;;;8.60;7.70;;;;;;;;;;4151348;34;20130;-58
2020/12/18 14:46:47;;;;;;;7.85;6.90;;;;;;;;;;4151592;34;20249;-58
2020/12/18 14:49:13;;;;;;;6.32;5.75;;;;;;;;;;4163335;34;20514;-58
2020/12/18 14:51:39;;;;;;;6.95;6.30;;;;;;;;;;4164189;34;20210;-57
2020/12/18 14:54:05;;;;;;;6.60;5.97;;;;;;;;;;4164219;34;20133;-58
2020/12/18 14:56:31;;;;;;;7.68;7.00;;;;;;;;;;4164240;34;20235;-58
2020/12/18 14:58:56;;;;;;;6.87;6.20;;;;;;;;;;4151286;34;20126;-58
2020/12/18 15:01:23;;;;;;;7.68;6.97;;;;;;;;;;4164105;34;20121;-58
2020/12/18 15:03:49;;;;;;;6.45;5.85;;;;;;;;;;4163925;34;20146;-58
2020/12/18 15:06:15;;;;;;;7.40;6.70;;;;;;;;;;4164023;34;20223;-57
2020/12/18 15:08:41;;;;;;;6.97;6.28;;;;;;;;;;4163893;34;20099;-57
2020/12/18 15:11:07;;;;;;;8.05;7.00;;;;;;;;;;4163895;34;20094;-57
2020/12/18 15:13:33;;;;;;;7.22;6.62;;;;;;;;;;4151290;34;20130;-57
2020/12/18 15:15:59;;;;;;;7.80;6.65;;;;;;;;;;4163862;34;20579;-57
2020/12/18 15:18:25;;;;;;;14.75;6.70;;;;;;;;;;4163951;34;20599;-57
2020/12/18 15:20:51;;;;;;;6.85;6.15;;;;;;;;;;4151142;34;20107;-58
2020/12/18 15:23:17;;;;;;;7.93;7.12;;;;;;;;;;4164072;34;20126;-57
2020/12/18 15:25:44;;;;;;;7.22;6.53;;;;;;;;;;4163787;34;20106;-60
2020/12/18 15:28:10;;;;;;;7.32;6.62;;;;;;;;;;4164041;34;20114;-59
2020/12/18 15:30:36;;;;;;;7.18;6.47;;;;;;;;;;4163763;34;20153;-59
2020/12/18 15:33:02;;;;;;;7.00;6.30;;;;;;;;;;4164027;34;20219;-59
2020/12/18 15:35:28;;;;;;;7.03;6.43;;;;;;;;;;4163644;34;20106;-59
2020/12/18 15:37:54;;;;;;;7.43;6.80;;;;;;;;;;4163823;34;20106;-61
2020/12/18 15:40:20;;;;;;;7.50;6.80;;;;;;;;;;4163736;34;20129;-63
2020/12/18 15:42:46;;;;;;;7.82;6.93;;;;;;;;;;4163640;34;20287;-65
2020/12/18 15:45:12;;;;;;;8.20;7.40;;;;;;;;;;4163460;34;20097;-64
2020/12/18 15:47:38;;;;;;;8.30;7.60;;;;;;;;;;4163644;34;20090;-67
2020/12/18 15:50:05;;;;;;;7.40;6.72;;;;;;;;;;4164167;34;20103;-65
2020/12/18 15:52:31;;;;;;;8.05;7.25;;;;;;;;;;4162496;34;20127;-64
2020/12/18 15:54:57;;;;;;;7.57;6.87;;;;;;;;;;4174903;34;20121;-65
2020/12/18 15:57:23;;;;;;;7.32;6.70;;;;;;;;;;4177202;34;20447;-64
2020/12/18 15:59:49;;;;;;;8.07;7.32;;;;;;;;;;4176753;34;20153;-63
2020/12/18 16:02:15;;;;;;;8.48;7.60;;;;;;;;;;4177325;34;20102;-61
2020/12/18 16:04:42;;;;;;;8.90;8.00;;;;;;;;;;4166459;34;20139;-63
2020/12/18 16:07:08;;;;;;;8.32;7.45;;;;;;;;;;4151031;34;20106;-63
2020/12/18 16:09:34;;;;;;;8.60;7.10;;;;;;;;;;4163396;34;20181;-63
2020/12/18 16:11:59;;;;;;;8.68;7.55;;;;;;;;;;4163656;34;20127;-62
2020/12/18 16:14:25;;;;;;;9.07;8.18;;;;;;;;;;4169746;34;20125;-63
2020/12/18 16:16:51;;;;;;;8.60;7.75;;;;;;;;;;4176780;34;20161;-60
2020/12/18 16:19:17;;;;;;;8.52;7.43;;;;;;;;;;4176764;34;20107;-61
2020/12/18 16:21:43;;;;;;;8.05;7.03;;;;;;;;;;4166113;34;20095;-62
2020/12/18 16:24:09;;;;;;;8.50;7.68;;;;;;;;;;4170171;34;20582;-62
2020/12/18 16:26:36;;;;;;;9.18;8.27;;;;;;;;;;4177038;34;20134;-62
2020/12/18 16:29:02;;;;;;;9.05;8.15;;;;;;;;;;4176591;34;20226;-63
2020/12/18 16:31:28;;;;;;;9.52;8.52;;;;;;;;;;4177071;34;20134;-62
2020/12/18 16:33:54;;;;;;;8.70;7.72;;;;;;;;;;4176736;34;20114;-62
2020/12/18 16:36:20;;;;;;;9.32;8.35;;;;;;;;;;4175910;34;20157;-62
2020/12/18 16:38:47;;;;;;;9.25;8.35;;;;;;;;;;4162897;34;20453;-62
2020/12/18 16:41:12;;;;;;;9.35;8.45;;;;;;;;;;4163045;34;20203;-63
2020/12/18 16:43:38;;;;;;;9.45;8.55;;;;;;;;;;4162778;34;20537;-61
2020/12/18 16:46:04;;;;;;;9.35;7.70;;;;;;;;;;4162783;34;20094;-62
2020/12/18 16:48:30;;;;;;;8.77;7.97;;;;;;;;;;4150061;34;20106;-62
2020/12/18 16:50:56;;;;;;;8.98;8.10;;;;;;;;;;4161736;34;20127;-63
2020/12/18 16:53:22;;;;;;;9.38;8.43;;;;;;;;;;4161365;34;20118;-63
2020/12/18 16:55:48;;;;;;;8.85;7.87;;;;;;;;;;4161267;34;20126;-62
2020/12/18 16:58:14;;;;;;;10.55;8.55;;;;;;;;;;4161337;34;20119;-62
2020/12/18 17:00:40;;;;;;;8.75;7.95;;;;;;;;;;4161220;34;20123;-64
2020/12/18 17:03:06;;;;;;;8.60;7.62;;;;;;;;;;4161285;34;20116;-62
2020/12/18 17:05:33;;;;;;;8.63;7.75;;;;;;;;;;4162089;34;20322;-62
2020/12/18 17:07:59;;;;;;;9.77;8.77;;;;;;;;;;4162945;34;20130;-64
2020/12/18 17:10:25;;;;;;;9.93;9.00;;;;;;;;;;4150093;34;20135;-61
2020/12/18 17:12:51;;;;;;;9.90;8.90;;;;;;;;;;4165351;34;20386;-63
2020/12/18 17:15:17;;;;;;;10.57;9.57;;;;;;;;;;4164876;34;20602;-62
2020/12/18 17:17:43;;;;;;;10.35;9.35;;;;;;;;;;4163959;34;20466;-64
2020/12/18 17:20:09;;;;;;;10.50;9.57;;;;;;;;;;4165053;34;20117;-63
2020/12/18 17:22:34;;;;;;;11.90;10.70;;;;;;;;;;4164789;34;20117;-62
2020/12/18 17:25:03;;;;;;;11.32;10.13;;;;;;;;;;4164807;34;20149;-61
2020/12/18 17:27:29;;;;;;;12.30;11.10;;;;;;;;;;4164829;34;20130;-61
2020/12/18 17:29:55;;;;;;;10.27;9.27;;;;;;;;;;4173743;34;20122;-62
2020/12/18 17:32:21;;;;;;;10.68;9.57;;;;;;;;;;4167155;34;20129;-60
2020/12/18 17:34:54;;;;;;;10.60;9.60;;;;;;;;;;4165961;34;20124;-62
2020/12/18 17:37:27;;;;;;;10.05;9.05;;;;;;;;;;4171509;34;20115;-61
2020/12/18 17:39:56;;;;;;;11.18;10.07;;;;;;;;;;4163422;34;20192;-61
2020/12/18 17:42:22;;;;;;;11.95;10.73;;;;;;;;;;4164722;34;20225;-61
2020/12/18 17:44:52;;;;;;;11.45;10.35;;;;;;;;;;4163893;34;20201;-61
2020/12/18 17:47:28;;;;;;;11.45;10.25;;;;;;;;;;4176541;34;20222;-60
2020/12/18 17:49:59;;;;;;;10.32;9.32;;;;;;;;;;4177375;34;20174;-61
2020/12/18 17:52:29;;;;;;;10.45;9.45;;;;;;;;;;4178156;34;20110;-61
2020/12/18 17:54:55;;;;;;;12.13;11.02;;;;;;;;;;4178480;34;20110;-61
2020/12/18 17:57:20;;;;;;;11.12;10.15;;;;;;;;;;4165586;34;20125;-61
2020/12/18 17:59:46;;;;;;;10.90;9.90;;;;;;;;;;4177968;34;20148;-62
2020/12/18 18:02:12;;;;;;;11.65;10.57;;;;;;;;;;4178079;34;20153;-63
2020/12/18 18:04:41;;;;;;;12.80;11.60;;;;;;;;;;4177928;34;20129;-63
2020/12/18 18:07:08;;;;;;;11.50;10.43;;;;;;;;;;4178128;34;20114;-61
2020/12/18 18:09:35;;;;;;;12.82;11.07;;;;;;;;;;4178114;34;20114;-62
2020/12/18 18:12:01;;;;;;;12.32;10.80;;;;;;;;;;4178081;34;20230;-61
2020/12/18 18:14:27;;;;;;;12.10;10.90;;;;;;;;;;4177831;34;20125;-63
2020/12/18 18:16:54;;;;;;;12.07;10.88;;;;;;;;;;4177872;34;20122;-63
2020/12/18 18:19:20;;;;;;;13.10;11.80;;;;;;;;;;4177736;34;20122;-63
2020/12/18 18:21:47;;;;;;;11.20;10.10;;;;;;;;;;4165303;34;20592;-63